Hampton, VA (23651)

10:32 PM EST on February 12, 2016 (GMT -0500)
Buckroe | | Change Station
CLOSE
Current Station
Personal Weather Station
Location: Hampton, VA
Elevation: 9 ft
Nearby Weather Stations
Active Advisory: Special Statement Active Notice: Public Information Statement

Elev 9 ft 37.04 °N, 76.30 °W | Updated 9 seconds ago

Mostly Cloudy
Mostly Cloudy
26.6 °F
Feels Like 27 °F
N
1.6
Wind Variable Wind from NW
Gusts 3.1 mph

Today
High -- | Low -- °F
--% Chance of Precip.
Yesterday
High -- | Low -- °F
Precip. -- in
Pressure 30.03 in
Visibility 10.0 miles
Clouds Scattered Clouds 1300 ft
Mostly Cloudy 9500 ft
Windchill 27 °F
Dew Point 20 °F
Humidity 75%
Rainfall Not available.
Snow Depth Not available.
6:57 AM 5:41 PM
Waxing Crescent, 26% visible
METAR KNGU 130259Z 27007KT 10SM SCT013 BKN095 M02/M06 A3003 RMK AO2 SLP168 T10221056 55004
Pressure 30.03 in
Visibility 10.0 miles
Clouds Scattered Clouds 1300 ft
Mostly Cloudy 9500 ft
Windchill 27 °F
Dew Point 20 °F
Humidity 75%
Rainfall Not available.
Snow Depth Not available.
6:57 AM 5:41 PM
Waxing Crescent, 26% visible
METAR KNGU 130259Z 27007KT 10SM SCT013 BKN095 M02/M06 A3003 RMK AO2 SLP168 T10221056 55004

10-Day Weather Forecast

Almanac

Astronomy

Feb. 12, 2016 Rise Set
Actual Time
Civil Twilight
Nautical Twilight
Astronomical Twilight
Moon
Length of Visible Light
Length of Day
Tomorrow will be .
, % of the Moon is Illuminated

Today's Extremes

State Highs State Lows

Community

WunderPhotos

Upload Photos

1,892,492 photos uploaded!

WunderBlog® & News

Nearby

Air Quality

  Air Quality AQ Index Pollutant
Not available.

Snow Depth

Station Depth Elevation

Earthquake Activity

City Distance Mag. Time & Date
Minimum magnitude displayed is 2.5.

Coastal Water Temperatures

Place Temperature

Stations

Nearby Weather Stations

Station Location Temp. Windchill Dew Point Humidity Wind Precip. Elev Updated Type
                   

Watches & Warnings

Special Statement
Issued: 7:39 PM EST Feb. 12, 2016 – National Weather Service

... Areas of black ice through Saturday morning...

Temperatures across the area will dip well below freezing tonight.
Lingering moisture from todays snow and the cold temperatures will
lead to areas of black ice on roadways.

Motorists should exercise caution while driving. Allow for extra
time to reach your destination and avoid sudden stops or
accelerations.



739 PM EST Fri Feb 12 2016

... Areas of black ice through Saturday morning...

Temperatures across the area will dip well below freezing tonight.
Lingering moisture from todays snow and the cold temperatures will
lead to areas of black ice on roadways.

Motorists should exercise caution while driving. Allow for extra
time to reach your destination and avoid sudden stops or
accelerations.